sensor_id;sensor_type;location;lat;lon;timestamp;temperature;humidity
4811;DHT22;2419;51.276;6.472;2023-05-10T00:00:16;13.60;99.90
4811;DHT22;2419;51.276;6.472;2023-05-10T00:02:44;13.60;99.90
4811;DHT22;2419;51.276;6.472;2023-05-10T00:05:13;13.50;99.90
4811;DHT22;2419;51.276;6.472;2023-05-10T00:07:41;13.50;99.90
4811;DHT22;2419;51.276;6.472;2023-05-10T00:10:11;13.40;99.90
4811;DHT22;2419;51.276;6.472;2023-05-10T00:12:41;13.40;99.90
4811;DHT22;2419;51.276;6.472;2023-05-10T00:15:11;13.40;99.90
4811;DHT22;2419;51.276;6.472;2023-05-10T00:17:39;13.40;99.90
4811;DHT22;2419;51.276;6.472;2023-05-10T00:20:07;13.40;99.90
4811;DHT22;2419;51.276;6.472;2023-05-10T00:22:35;13.40;99.90
4811;DHT22;2419;51.276;6.472;2023-05-10T00:25:05;13.40;99.90
4811;DHT22;2419;51.276;6.472;2023-05-10T00:27:33;13.40;99.90
4811;DHT22;2419;51.276;6.472;2023-05-10T00:30:02;13.30;99.90
4811;DHT22;2419;51.276;6.472;2023-05-10T00:32:31;13.30;99.90
4811;DHT22;2419;51.276;6.472;2023-05-10T00:34:59;13.30;99.90
4811;DHT22;2419;51.276;6.472;2023-05-10T00:37:27;13.20;99.90
4811;DHT22;2419;51.276;6.472;2023-05-10T00:39:55;13.20;99.90
4811;DHT22;2419;51.276;6.472;2023-05-10T00:42:22;13.20;99.90
4811;DHT22;2419;51.276;6.472;2023-05-10T00:44:52;13.20;99.90
4811;DHT22;2419;51.276;6.472;2023-05-10T00:47:22;13.20;99.90
4811;DHT22;2419;51.276;6.472;2023-05-10T00:49:50;13.20;99.90
4811;DHT22;2419;51.276;6.472;2023-05-10T00:52:19;13.20;99.90
4811;DHT22;2419;51.276;6.472;2023-05-10T00:54:47;13.10;99.90
4811;DHT22;2419;51.276;6.472;2023-05-10T00:57:16;13.10;99.90
4811;DHT22;2419;51.276;6.472;2023-05-10T00:59:44;13.10;99.90
4811;DHT22;2419;51.276;6.472;2023-05-10T01:02:12;13.10;99.90
4811;DHT22;2419;51.276;6.472;2023-05-10T01:04:43;13.10;99.90
4811;DHT22;2419;51.276;6.472;2023-05-10T01:07:11;13.10;99.90
4811;DHT22;2419;51.276;6.472;2023-05-10T01:09:39;13.00;99.90
4811;DHT22;2419;51.276;6.472;2023-05-10T01:12:07;13.00;99.90
4811;DHT22;2419;51.276;6.472;2023-05-10T01:14:35;13.00;99.90
4811;DHT22;2419;51.276;6.472;2023-05-10T01:17:04;12.90;99.90
4811;DHT22;2419;51.276;6.472;2023-05-10T01:19:34;12.90;99.90
4811;DHT22;2419;51.276;6.472;2023-05-10T01:25:11;12.90;99.90
4811;DHT22;2419;51.276;6.472;2023-05-10T01:33:55;12.90;99.90
4811;DHT22;2419;51.276;6.472;2023-05-10T01:36:29;12.90;99.90
4811;DHT22;2419;51.276;6.472;2023-05-10T01:39:02;12.90;99.90
4811;DHT22;2419;51.276;6.472;2023-05-10T01:41:41;12.90;99.90
4811;DHT22;2419;51.276;6.472;2023-05-10T01:44:17;12.90;99.90
4811;DHT22;2419;51.276;6.472;2023-05-10T01:46:50;12.90;99.90
4811;DHT22;2419;51.276;6.472;2023-05-10T01:49:25;12.90;99.90
4811;DHT22;2419;51.276;6.472;2023-05-10T01:51:56;12.90;99.90
4811;DHT22;2419;51.276;6.472;2023-05-10T01:54:27;12.90;99.90
4811;DHT22;2419;51.276;6.472;2023-05-10T01:57:00;12.80;99.90
4811;DHT22;2419;51.276;6.472;2023-05-10T01:59:31;12.80;99.90
4811;DHT22;2419;51.276;6.472;2023-05-10T02:02:04;12.80;99.90
4811;DHT22;2419;51.276;6.472;2023-05-10T02:04:35;12.90;99.90
4811;DHT22;2419;51.276;6.472;2023-05-10T02:07:05;12.90;99.90
4811;DHT22;2419;51.276;6.472;2023-05-10T02:09:34;12.90;99.90
4811;DHT22;2419;51.276;6.472;2023-05-10T02:12:04;12.90;99.90
4811;DHT22;2419;51.276;6.472;2023-05-10T02:14:35;13.00;99.90
4811;DHT22;2419;51.276;6.472;2023-05-10T02:17:05;12.90;99.90
4811;DHT22;2419;51.276;6.472;2023-05-10T02:19:37;12.90;99.90
4811;DHT22;2419;51.276;6.472;2023-05-10T02:22:06;12.90;99.90
4811;DHT22;2419;51.276;6.472;2023-05-10T02:24:36;13.00;99.90
4811;DHT22;2419;51.276;6.472;2023-05-10T02:27:05;12.90;99.90
4811;DHT22;2419;51.276;6.472;2023-05-10T02:29:35;12.90;99.90
4811;DHT22;2419;51.276;6.472;2023-05-10T02:32:04;12.90;99.90
4811;DHT22;2419;51.276;6.472;2023-05-10T02:34:35;12.90;99.90
4811;DHT22;2419;51.276;6.472;2023-05-10T02:37:03;12.90;99.90
4811;DHT22;2419;51.276;6.472;2023-05-10T02:39:33;12.90;99.90
4811;DHT22;2419;51.276;6.472;2023-05-10T02:42:03;12.90;99.90
4811;DHT22;2419;51.276;6.472;2023-05-10T02:44:33;12.90;99.90
4811;DHT22;2419;51.276;6.472;2023-05-10T02:47:02;12.90;99.90
4811;DHT22;2419;51.276;6.472;2023-05-10T02:49:30;12.90;99.90
4811;DHT22;2419;51.276;6.472;2023-05-10T02:52:01;12.80;99.90
4811;DHT22;2419;51.276;6.472;2023-05-10T02:54:33;12.80;99.90
4811;DHT22;2419;51.276;6.472;2023-05-10T02:57:04;12.80;99.90
4811;DHT22;2419;51.276;6.472;2023-05-10T02:59:33;12.80;99.90
4811;DHT22;2419;51.276;6.472;2023-05-10T03:02:02;12.80;99.90
4811;DHT22;2419;51.276;6.472;2023-05-10T03:04:30;12.70;99.90
4811;DHT22;2419;51.276;6.472;2023-05-10T03:07:00;12.80;99.90
4811;DHT22;2419;51.276;6.472;2023-05-10T03:09:28;12.80;99.90
4811;DHT22;2419;51.276;6.472;2023-05-10T03:12:02;12.80;99.90
4811;DHT22;2419;51.276;6.472;2023-05-10T03:14:45;12.80;99.90
4811;DHT22;2419;51.276;6.472;2023-05-10T03:17:22;12.90;99.90
4811;DHT22;2419;51.276;6.472;2023-05-10T03:19:54;12.90;99.90
4811;DHT22;2419;51.276;6.472;2023-05-10T03:22:28;12.90;99.90
4811;DHT22;2419;51.276;6.472;2023-05-10T03:25:00;12.90;99.90
4811;DHT22;2419;51.276;6.472;2023-05-10T03:27:34;13.00;99.90
4811;DHT22;2419;51.276;6.472;2023-05-10T03:30:05;13.00;99.90
4811;DHT22;2419;51.276;6.472;2023-05-10T03:32:33;12.90;99.90
4811;DHT22;2419;51.276;6.472;2023-05-10T03:35:05;12.90;99.90
4811;DHT22;2419;51.276;6.472;2023-05-10T03:37:35;12.90;99.90
4811;DHT22;2419;51.276;6.472;2023-05-10T03:40:05;13.00;99.90
4811;DHT22;2419;51.276;6.472;2023-05-10T03:42:35;13.00;99.90
4811;DHT22;2419;51.276;6.472;2023-05-10T03:45:04;13.10;99.90
4811;DHT22;2419;51.276;6.472;2023-05-10T03:47:32;13.10;99.90
4811;DHT22;2419;51.276;6.472;2023-05-10T03:50:00;13.10;99.90
4811;DHT22;2419;51.276;6.472;2023-05-10T03:52:29;13.10;99.90
4811;DHT22;2419;51.276;6.472;2023-05-10T03:54:58;13.10;99.90
4811;DHT22;2419;51.276;6.472;2023-05-10T03:57:26;13.20;99.90
4811;DHT22;2419;51.276;6.472;2023-05-10T03:59:54;13.10;99.90
4811;DHT22;2419;51.276;6.472;2023-05-10T04:02:23;13.10;99.90
4811;DHT22;2419;51.276;6.472;2023-05-10T04:04:51;13.10;99.90
4811;DHT22;2419;51.276;6.472;2023-05-10T04:07:19;13.10;99.90
4811;DHT22;2419;51.276;6.472;2023-05-10T04:09:47;13.20;99.90
4811;DHT22;2419;51.276;6.472;2023-05-10T04:12:17;13.20;99.90
4811;DHT22;2419;51.276;6.472;2023-05-10T04:14:45;13.30;99.90
4811;DHT22;2419;51.276;6.472;2023-05-10T04:17:12;13.30;99.90
4811;DHT22;2419;51.276;6.472;2023-05-10T04:19:41;13.20;99.90
4811;DHT22;2419;51.276;6.472;2023-05-10T04:22:09;13.20;99.90
4811;DHT22;2419;51.276;6.472;2023-05-10T04:24:37;13.20;99.90
4811;DHT22;2419;51.276;6.472;2023-05-10T04:27:05;13.30;99.90
4811;DHT22;2419;51.276;6.472;2023-05-10T04:29:34;13.30;99.90
4811;DHT22;2419;51.276;6.472;2023-05-10T04:32:02;13.20;99.90
4811;DHT22;2419;51.276;6.472;2023-05-10T04:34:31;13.20;99.90
4811;DHT22;2419;51.276;6.472;2023-05-10T04:37:00;13.20;99.90
4811;DHT22;2419;51.276;6.472;2023-05-10T04:39:28;13.20;99.90
4811;DHT22;2419;51.276;6.472;2023-05-10T04:41:56;13.20;99.90
4811;DHT22;2419;51.276;6.472;2023-05-10T04:44:24;13.20;99.90
4811;DHT22;2419;51.276;6.472;2023-05-10T04:46:54;13.30;99.90
4811;DHT22;2419;51.276;6.472;2023-05-10T04:49:22;13.30;99.90
4811;DHT22;2419;51.276;6.472;2023-05-10T04:51:50;13.20;99.90
4811;DHT22;2419;51.276;6.472;2023-05-10T04:54:18;13.30;99.90
4811;DHT22;2419;51.276;6.472;2023-05-10T04:56:45;13.30;99.90
4811;DHT22;2419;51.276;6.472;2023-05-10T04:59:13;13.30;99.90
4811;DHT22;2419;51.276;6.472;2023-05-10T05:01:41;13.30;99.90
4811;DHT22;2419;51.276;6.472;2023-05-10T05:04:11;13.30;99.90
4811;DHT22;2419;51.276;6.472;2023-05-10T05:06:39;13.30;99.90
4811;DHT22;2419;51.276;6.472;2023-05-10T05:09:07;13.30;99.90
4811;DHT22;2419;51.276;6.472;2023-05-10T05:11:36;13.30;99.90
4811;DHT22;2419;51.276;6.472;2023-05-10T05:14:04;13.30;99.90
4811;DHT22;2419;51.276;6.472;2023-05-10T05:16:32;13.30;99.90
4811;DHT22;2419;51.276;6.472;2023-05-10T05:19:01;13.20;99.90
4811;DHT22;2419;51.276;6.472;2023-05-10T05:21:30;13.20;99.90
4811;DHT22;2419;51.276;6.472;2023-05-10T05:23:59;13.20;99.90
4811;DHT22;2419;51.276;6.472;2023-05-10T05:26:27;13.30;99.90
4811;DHT22;2419;51.276;6.472;2023-05-10T05:28:55;13.30;99.90
4811;DHT22;2419;51.276;6.472;2023-05-10T05:31:23;13.30;99.90
4811;DHT22;2419;51.276;6.472;2023-05-10T05:33:51;13.20;99.90
4811;DHT22;2419;51.276;6.472;2023-05-10T05:36:19;13.20;99.90
4811;DHT22;2419;51.276;6.472;2023-05-10T05:38:49;13.20;99.90
4811;DHT22;2419;51.276;6.472;2023-05-10T05:41:17;13.20;99.90
4811;DHT22;2419;51.276;6.472;2023-05-10T05:43:44;13.20;99.90
4811;DHT22;2419;51.276;6.472;2023-05-10T05:46:12;13.20;99.90
4811;DHT22;2419;51.276;6.472;2023-05-10T05:48:40;13.20;99.90
4811;DHT22;2419;51.276;6.472;2023-05-10T05:51:08;13.10;99.90
4811;DHT22;2419;51.276;6.472;2023-05-10T05:53:37;13.10;99.90
4811;DHT22;2419;51.276;6.472;2023-05-10T05:56:06;13.20;99.90
4811;DHT22;2419;51.276;6.472;2023-05-10T05:58:35;13.20;99.90
4811;DHT22;2419;51.276;6.472;2023-05-10T06:01:04;13.20;99.90
4811;DHT22;2419;51.276;6.472;2023-05-10T06:03:32;13.20;99.90
4811;DHT22;2419;51.276;6.472;2023-05-10T06:06:00;13.20;99.90
4811;DHT22;2419;51.276;6.472;2023-05-10T06:08:28;13.20;99.90
4811;DHT22;2419;51.276;6.472;2023-05-10T06:10:56;13.20;99.90
4811;DHT22;2419;51.276;6.472;2023-05-10T06:13:25;13.20;99.90
4811;DHT22;2419;51.276;6.472;2023-05-10T06:15:55;13.20;99.90
4811;DHT22;2419;51.276;6.472;2023-05-10T06:18:23;13.20;99.90
4811;DHT22;2419;51.276;6.472;2023-05-10T06:20:51;13.10;99.90
4811;DHT22;2419;51.276;6.472;2023-05-10T06:23:19;13.20;99.90
4811;DHT22;2419;51.276;6.472;2023-05-10T06:25:48;13.20;99.90
4811;DHT22;2419;51.276;6.472;2023-05-10T06:28:16;13.30;99.90
4811;DHT22;2419;51.276;6.472;2023-05-10T06:30:46;13.40;99.90
4811;DHT22;2419;51.276;6.472;2023-05-10T06:33:14;13.30;99.90
4811;DHT22;2419;51.276;6.472;2023-05-10T06:35:43;13.30;99.90
4811;DHT22;2419;51.276;6.472;2023-05-10T06:38:11;13.40;99.90
4811;DHT22;2419;51.276;6.472;2023-05-10T06:40:41;13.50;99.90
4811;DHT22;2419;51.276;6.472;2023-05-10T06:43:09;13.50;99.90
4811;DHT22;2419;51.276;6.472;2023-05-10T06:45:37;13.50;99.90
4811;DHT22;2419;51.276;6.472;2023-05-10T06:48:06;13.70;99.90
4811;DHT22;2419;51.276;6.472;2023-05-10T06:50:35;13.70;99.90
4811;DHT22;2419;51.276;6.472;2023-05-10T06:53:03;13.80;99.90
4811;DHT22;2419;51.276;6.472;2023-05-10T06:55:31;13.80;99.90
4811;DHT22;2419;51.276;6.472;2023-05-10T06:57:59;13.80;99.90
4811;DHT22;2419;51.276;6.472;2023-05-10T07:00:27;13.80;99.90
4811;DHT22;2419;51.276;6.472;2023-05-10T07:02:55;13.90;99.90
4811;DHT22;2419;51.276;6.472;2023-05-10T07:05:24;14.00;99.90
4811;DHT22;2419;51.276;6.472;2023-05-10T07:07:54;14.00;99.90
4811;DHT22;2419;51.276;6.472;2023-05-10T07:10:22;14.00;99.90
4811;DHT22;2419;51.276;6.472;2023-05-10T07:12:50;14.10;99.90
4811;DHT22;2419;51.276;6.472;2023-05-10T07:15:19;13.90;99.90
4811;DHT22;2419;51.276;6.472;2023-05-10T07:17:47;14.10;99.90
4811;DHT22;2419;51.276;6.472;2023-05-10T07:20:15;14.10;99.90
4811;DHT22;2419;51.276;6.472;2023-05-10T07:22:45;14.20;99.90
4811;DHT22;2419;51.276;6.472;2023-05-10T07:25:13;14.20;99.90
4811;DHT22;2419;51.276;6.472;2023-05-10T07:27:41;14.10;99.90
4811;DHT22;2419;51.276;6.472;2023-05-10T07:30:10;14.30;99.90
4811;DHT22;2419;51.276;6.472;2023-05-10T07:32:38;14.50;99.90
4811;DHT22;2419;51.276;6.472;2023-05-10T07:35:08;14.40;99.90
4811;DHT22;2419;51.276;6.472;2023-05-10T07:37:36;14.40;99.90
4811;DHT22;2419;51.276;6.472;2023-05-10T07:40:09;14.40;99.90
4811;DHT22;2419;51.276;6.472;2023-05-10T07:42:37;14.30;99.90
4811;DHT22;2419;51.276;6.472;2023-05-10T07:45:06;14.20;99.90
4811;DHT22;2419;51.276;6.472;2023-05-10T07:47:34;14.00;99.90
4811;DHT22;2419;51.276;6.472;2023-05-10T07:50:03;14.10;99.90
4811;DHT22;2419;51.276;6.472;2023-05-10T07:52:31;14.00;99.90
4811;DHT22;2419;51.276;6.472;2023-05-10T07:54:59;14.20;99.90
4811;DHT22;2419;51.276;6.472;2023-05-10T07:57:29;14.20;99.90
4811;DHT22;2419;51.276;6.472;2023-05-10T07:59:57;14.30;99.90
4811;DHT22;2419;51.276;6.472;2023-05-10T08:02:25;14.20;99.90
4811;DHT22;2419;51.276;6.472;2023-05-10T08:04:53;14.30;99.90
4811;DHT22;2419;51.276;6.472;2023-05-10T08:07:24;14.30;99.90
4811;DHT22;2419;51.276;6.472;2023-05-10T08:09:52;14.20;99.90
4811;DHT22;2419;51.276;6.472;2023-05-10T08:12:20;14.20;99.90
4811;DHT22;2419;51.276;6.472;2023-05-10T08:14:50;14.10;99.90
4811;DHT22;2419;51.276;6.472;2023-05-10T08:17:18;14.20;99.90
4811;DHT22;2419;51.276;6.472;2023-05-10T08:19:49;14.10;99.90
4811;DHT22;2419;51.276;6.472;2023-05-10T08:22:17;14.20;99.90
4811;DHT22;2419;51.276;6.472;2023-05-10T08:24:45;14.20;99.90
4811;DHT22;2419;51.276;6.472;2023-05-10T08:27:13;14.50;99.90
4811;DHT22;2419;51.276;6.472;2023-05-10T08:29:41;14.70;99.90
4811;DHT22;2419;51.276;6.472;2023-05-10T08:32:17;15.00;99.90
4811;DHT22;2419;51.276;6.472;2023-05-10T08:34:45;15.20;99.90
4811;DHT22;2419;51.276;6.472;2023-05-10T08:37:13;15.10;99.90
4811;DHT22;2419;51.276;6.472;2023-05-10T08:39:41;15.40;99.90
4811;DHT22;2419;51.276;6.472;2023-05-10T08:42:09;15.20;99.90
4811;DHT22;2419;51.276;6.472;2023-05-10T08:44:38;15.10;99.90
4811;DHT22;2419;51.276;6.472;2023-05-10T08:47:06;14.90;99.90
4811;DHT22;2419;51.276;6.472;2023-05-10T08:49:37;15.00;99.90
4811;DHT22;2419;51.276;6.472;2023-05-10T08:52:05;15.10;99.90
4811;DHT22;2419;51.276;6.472;2023-05-10T08:54:34;15.20;99.90
4811;DHT22;2419;51.276;6.472;2023-05-10T08:57:03;15.20;99.90
4811;DHT22;2419;51.276;6.472;2023-05-10T08:59:32;15.30;99.90
4811;DHT22;2419;51.276;6.472;2023-05-10T09:02:00;15.20;99.90
4811;DHT22;2419;51.276;6.472;2023-05-10T09:04:29;15.00;99.90
4811;DHT22;2419;51.276;6.472;2023-05-10T09:06:59;15.00;99.90
4811;DHT22;2419;51.276;6.472;2023-05-10T09:09:28;14.80;99.90
4811;DHT22;2419;51.276;6.472;2023-05-10T09:11:56;14.70;99.90
4811;DHT22;2419;51.276;6.472;2023-05-10T09:14:25;14.80;99.90
4811;DHT22;2419;51.276;6.472;2023-05-10T09:16:53;14.70;99.90
4811;DHT22;2419;51.276;6.472;2023-05-10T09:19:22;14.80;99.90
4811;DHT22;2419;51.276;6.472;2023-05-10T09:21:50;15.00;99.90
4811;DHT22;2419;51.276;6.472;2023-05-10T09:24:25;15.10;99.90
4811;DHT22;2419;51.276;6.472;2023-05-10T09:26:56;15.40;99.90
4811;DHT22;2419;51.276;6.472;2023-05-10T09:29:24;15.40;99.90
4811;DHT22;2419;51.276;6.472;2023-05-10T09:31:52;15.20;99.90
4811;DHT22;2419;51.276;6.472;2023-05-10T09:34:29;15.10;99.90
4811;DHT22;2419;51.276;6.472;2023-05-10T09:36:59;15.00;99.90
4811;DHT22;2419;51.276;6.472;2023-05-10T09:39:33;14.90;99.90
4811;DHT22;2419;51.276;6.472;2023-05-10T09:42:03;14.80;99.90
4811;DHT22;2419;51.276;6.472;2023-05-10T09:44:32;14.80;99.90
4811;DHT22;2419;51.276;6.472;2023-05-10T09:47:01;14.60;99.90
4811;DHT22;2419;51.276;6.472;2023-05-10T09:49:29;14.50;99.90
4811;DHT22;2419;51.276;6.472;2023-05-10T09:52:00;14.60;99.90
4811;DHT22;2419;51.276;6.472;2023-05-10T09:54:29;14.50;99.90
4811;DHT22;2419;51.276;6.472;2023-05-10T09:56:58;14.70;99.90
4811;DHT22;2419;51.276;6.472;2023-05-10T09:59:27;14.90;99.90
4811;DHT22;2419;51.276;6.472;2023-05-10T10:01:56;15.00;99.90
4811;DHT22;2419;51.276;6.472;2023-05-10T10:04:25;15.10;99.90
4811;DHT22;2419;51.276;6.472;2023-05-10T10:07:01;15.20;99.90
4811;DHT22;2419;51.276;6.472;2023-05-10T10:09:30;15.40;99.90
4811;DHT22;2419;51.276;6.472;2023-05-10T10:11:59;15.50;99.90
4811;DHT22;2419;51.276;6.472;2023-05-10T10:14:28;15.80;99.90
4811;DHT22;2419;51.276;6.472;2023-05-10T10:16:57;15.80;99.90
4811;DHT22;2419;51.276;6.472;2023-05-10T10:19:32;15.90;99.90
4811;DHT22;2419;51.276;6.472;2023-05-10T10:22:01;15.90;99.90
4811;DHT22;2419;51.276;6.472;2023-05-10T10:24:29;15.50;99.90
4811;DHT22;2419;51.276;6.472;2023-05-10T10:27:21;15.60;99.90
4811;DHT22;2419;51.276;6.472;2023-05-10T10:29:59;15.50;99.90
4811;DHT22;2419;51.276;6.472;2023-05-10T10:32:37;15.60;99.90
4811;DHT22;2419;51.276;6.472;2023-05-10T10:35:08;15.50;99.90
4811;DHT22;2419;51.276;6.472;2023-05-10T10:37:46;15.60;99.90
4811;DHT22;2419;51.276;6.472;2023-05-10T10:40:28;15.50;99.90
4811;DHT22;2419;51.276;6.472;2023-05-10T10:43:22;15.20;99.90
4811;DHT22;2419;51.276;6.472;2023-05-10T10:46:10;15.10;99.90
4811;DHT22;2419;51.276;6.472;2023-05-10T10:48:39;15.00;99.90
4811;DHT22;2419;51.276;6.472;2023-05-10T10:51:07;15.10;99.90
4811;DHT22;2419;51.276;6.472;2023-05-10T10:53:39;15.00;99.90
4811;DHT22;2419;51.276;6.472;2023-05-10T10:56:08;15.10;99.90
4811;DHT22;2419;51.276;6.472;2023-05-10T10:58:38;15.10;99.90
4811;DHT22;2419;51.276;6.472;2023-05-10T11:01:17;15.40;99.90
4811;DHT22;2419;51.276;6.472;2023-05-10T11:04:16;15.50;99.90
4811;DHT22;2419;51.276;6.472;2023-05-10T11:06:45;15.80;99.90
4811;DHT22;2419;51.276;6.472;2023-05-10T11:09:13;15.80;99.90
4811;DHT22;2419;51.276;6.472;2023-05-10T11:11:52;16.00;99.90
4811;DHT22;2419;51.276;6.472;2023-05-10T11:14:23;16.20;99.90
4811;DHT22;2419;51.276;6.472;2023-05-10T11:16:52;16.00;99.90
4811;DHT22;2419;51.276;6.472;2023-05-10T11:19:20;15.90;99.90
4811;DHT22;2419;51.276;6.472;2023-05-10T11:21:49;15.90;99.90
4811;DHT22;2419;51.276;6.472;2023-05-10T11:24:19;15.80;99.90
4811;DHT22;2419;51.276;6.472;2023-05-10T11:26:50;15.80;99.90
4811;DHT22;2419;51.276;6.472;2023-05-10T11:29:18;16.00;99.90
4811;DHT22;2419;51.276;6.472;2023-05-10T11:31:49;16.10;99.90
4811;DHT22;2419;51.276;6.472;2023-05-10T11:34:24;16.10;99.90
4811;DHT22;2419;51.276;6.472;2023-05-10T11:36:53;15.80;99.90
4811;DHT22;2419;51.276;6.472;2023-05-10T11:39:25;15.90;99.90
4811;DHT22;2419;51.276;6.472;2023-05-10T11:41:54;16.20;99.90
4811;DHT22;2419;51.276;6.472;2023-05-10T11:44:22;16.30;99.90
4811;DHT22;2419;51.276;6.472;2023-05-10T11:46:52;16.20;99.90
4811;DHT22;2419;51.276;6.472;2023-05-10T11:49:20;16.00;99.90
4811;DHT22;2419;51.276;6.472;2023-05-10T11:51:50;16.20;99.90
4811;DHT22;2419;51.276;6.472;2023-05-10T11:54:18;16.60;99.90
4811;DHT22;2419;51.276;6.472;2023-05-10T11:56:46;16.70;99.90
4811;DHT22;2419;51.276;6.472;2023-05-10T11:59:14;16.90;99.90
4811;DHT22;2419;51.276;6.472;2023-05-10T12:01:42;17.10;99.90
4811;DHT22;2419;51.276;6.472;2023-05-10T12:04:12;17.30;99.90
4811;DHT22;2419;51.276;6.472;2023-05-10T12:06:41;17.40;99.90
4811;DHT22;2419;51.276;6.472;2023-05-10T12:09:09;17.50;99.90
4811;DHT22;2419;51.276;6.472;2023-05-10T12:11:38;17.30;99.90
4811;DHT22;2419;51.276;6.472;2023-05-10T12:14:10;17.40;99.90
4811;DHT22;2419;51.276;6.472;2023-05-10T12:16:38;17.10;99.90
4811;DHT22;2419;51.276;6.472;2023-05-10T12:19:06;17.20;99.90
4811;DHT22;2419;51.276;6.472;2023-05-10T12:21:35;17.30;99.90
4811;DHT22;2419;51.276;6.472;2023-05-10T12:24:05;17.50;99.90
4811;DHT22;2419;51.276;6.472;2023-05-10T12:26:35;17.60;99.90
4811;DHT22;2419;51.276;6.472;2023-05-10T12:29:21;17.80;99.90
4811;DHT22;2419;51.276;6.472;2023-05-10T12:31:51;17.90;99.90
4811;DHT22;2419;51.276;6.472;2023-05-10T12:34:23;17.70;99.90
4811;DHT22;2419;51.276;6.472;2023-05-10T12:36:54;17.60;99.90
4811;DHT22;2419;51.276;6.472;2023-05-10T12:39:22;17.40;99.90
4811;DHT22;2419;51.276;6.472;2023-05-10T12:41:51;17.10;99.90
4811;DHT22;2419;51.276;6.472;2023-05-10T12:44:19;16.90;99.90
4811;DHT22;2419;51.276;6.472;2023-05-10T12:46:47;16.90;99.90
4811;DHT22;2419;51.276;6.472;2023-05-10T12:49:15;17.10;99.90
4811;DHT22;2419;51.276;6.472;2023-05-10T12:51:43;17.00;99.90
4811;DHT22;2419;51.276;6.472;2023-05-10T12:54:12;17.10;99.90
4811;DHT22;2419;51.276;6.472;2023-05-10T12:56:40;17.50;99.90
4811;DHT22;2419;51.276;6.472;2023-05-10T12:59:09;17.70;99.90
4811;DHT22;2419;51.276;6.472;2023-05-10T13:01:37;17.30;99.90
4811;DHT22;2419;51.276;6.472;2023-05-10T13:04:05;17.30;99.90
4811;DHT22;2419;51.276;6.472;2023-05-10T13:06:33;17.10;99.90
4811;DHT22;2419;51.276;6.472;2023-05-10T13:09:01;17.40;99.90
4811;DHT22;2419;51.276;6.472;2023-05-10T13:11:31;17.50;99.90
4811;DHT22;2419;51.276;6.472;2023-05-10T13:13:59;17.50;99.90
4811;DHT22;2419;51.276;6.472;2023-05-10T13:16:27;17.20;99.90
4811;DHT22;2419;51.276;6.472;2023-05-10T13:18:55;17.20;99.90
4811;DHT22;2419;51.276;6.472;2023-05-10T13:21:23;17.40;99.90
4811;DHT22;2419;51.276;6.472;2023-05-10T13:23:52;17.50;99.90
4811;DHT22;2419;51.276;6.472;2023-05-10T13:26:20;17.70;99.90
4811;DHT22;2419;51.276;6.472;2023-05-10T13:28:50;17.60;99.90
4811;DHT22;2419;51.276;6.472;2023-05-10T13:31:18;17.50;99.90
4811;DHT22;2419;51.276;6.472;2023-05-10T13:33:47;17.40;99.90
4811;DHT22;2419;51.276;6.472;2023-05-10T13:36:15;17.40;99.90
4811;DHT22;2419;51.276;6.472;2023-05-10T13:38:43;17.40;99.90
4811;DHT22;2419;51.276;6.472;2023-05-10T13:41:11;17.10;99.90
4811;DHT22;2419;51.276;6.472;2023-05-10T13:43:39;16.90;99.90
4811;DHT22;2419;51.276;6.472;2023-05-10T13:46:08;16.90;99.90
4811;DHT22;2419;51.276;6.472;2023-05-10T13:48:36;17.00;99.90
4811;DHT22;2419;51.276;6.472;2023-05-10T13:51:05;17.10;99.90
4811;DHT22;2419;51.276;6.472;2023-05-10T13:53:33;17.10;99.90
4811;DHT22;2419;51.276;6.472;2023-05-10T13:56:01;17.20;99.90
4811;DHT22;2419;51.276;6.472;2023-05-10T13:58:29;17.40;99.90
4811;DHT22;2419;51.276;6.472;2023-05-10T14:00:57;17.20;99.90
4811;DHT22;2419;51.276;6.472;2023-05-10T14:03:26;17.40;99.90
4811;DHT22;2419;51.276;6.472;2023-05-10T14:05:54;17.50;99.90
4811;DHT22;2419;51.276;6.472;2023-05-10T14:08:23;17.70;99.90
4811;DHT22;2419;51.276;6.472;2023-05-10T14:10:51;17.80;99.90
4811;DHT22;2419;51.276;6.472;2023-05-10T14:13:19;18.00;99.90
4811;DHT22;2419;51.276;6.472;2023-05-10T14:15:47;18.00;99.90
4811;DHT22;2419;51.276;6.472;2023-05-10T14:18:15;18.00;99.90
4811;DHT22;2419;51.276;6.472;2023-05-10T14:20:45;18.20;99.90
4811;DHT22;2419;51.276;6.472;2023-05-10T14:23:13;18.40;99.90
4811;DHT22;2419;51.276;6.472;2023-05-10T14:25:41;18.40;99.90
4811;DHT22;2419;51.276;6.472;2023-05-10T14:28:09;17.90;99.90
4811;DHT22;2419;51.276;6.472;2023-05-10T14:30:38;17.90;99.90
4811;DHT22;2419;51.276;6.472;2023-05-10T14:33:06;17.70;99.90
4811;DHT22;2419;51.276;6.472;2023-05-10T14:35:34;17.80;99.90
4811;DHT22;2419;51.276;6.472;2023-05-10T14:38:04;17.60;99.90
4811;DHT22;2419;51.276;6.472;2023-05-10T14:40:32;17.30;99.90
4811;DHT22;2419;51.276;6.472;2023-05-10T14:43:00;17.20;99.90
4811;DHT22;2419;51.276;6.472;2023-05-10T14:45:28;17.30;99.90
4811;DHT22;2419;51.276;6.472;2023-05-10T14:47:57;17.10;99.90
4811;DHT22;2419;51.276;6.472;2023-05-10T14:50:25;17.30;99.90
4811;DHT22;2419;51.276;6.472;2023-05-10T14:53:04;17.40;99.90
4811;DHT22;2419;51.276;6.472;2023-05-10T14:55:32;17.20;99.90
4811;DHT22;2419;51.276;6.472;2023-05-10T14:58:01;16.90;99.90
4811;DHT22;2419;51.276;6.472;2023-05-10T15:00:30;17.00;99.90
4811;DHT22;2419;51.276;6.472;2023-05-10T15:02:59;17.00;99.90
4811;DHT22;2419;51.276;6.472;2023-05-10T15:05:27;16.90;99.90
4811;DHT22;2419;51.276;6.472;2023-05-10T15:07:56;16.90;99.90
4811;DHT22;2419;51.276;6.472;2023-05-10T15:10:25;16.90;99.90
4811;DHT22;2419;51.276;6.472;2023-05-10T15:12:53;17.10;99.90
4811;DHT22;2419;51.276;6.472;2023-05-10T15:15:21;17.30;99.90
4811;DHT22;2419;51.276;6.472;2023-05-10T15:17:49;17.20;99.90
4811;DHT22;2419;51.276;6.472;2023-05-10T15:20:17;17.30;99.90
4811;DHT22;2419;51.276;6.472;2023-05-10T15:22:45;17.40;99.90
4811;DHT22;2419;51.276;6.472;2023-05-10T15:25:13;17.60;99.90
4811;DHT22;2419;51.276;6.472;2023-05-10T15:27:44;17.40;99.90
4811;DHT22;2419;51.276;6.472;2023-05-10T15:30:12;17.10;99.90
4811;DHT22;2419;51.276;6.472;2023-05-10T15:32:40;16.80;99.90
4811;DHT22;2419;51.276;6.472;2023-05-10T15:35:09;16.60;99.90
4811;DHT22;2419;51.276;6.472;2023-05-10T15:37:37;16.30;99.90
4811;DHT22;2419;51.276;6.472;2023-05-10T15:40:06;16.40;99.90
4811;DHT22;2419;51.276;6.472;2023-05-10T15:42:34;16.30;99.90
4811;DHT22;2419;51.276;6.472;2023-05-10T15:45:05;16.10;99.90
4811;DHT22;2419;51.276;6.472;2023-05-10T15:47:33;16.00;99.90
4811;DHT22;2419;51.276;6.472;2023-05-10T15:50:01;15.90;99.90
4811;DHT22;2419;51.276;6.472;2023-05-10T15:52:29;15.80;99.90
4811;DHT22;2419;51.276;6.472;2023-05-10T15:54:57;15.80;99.90
4811;DHT22;2419;51.276;6.472;2023-05-10T15:57:25;15.70;99.90
4811;DHT22;2419;51.276;6.472;2023-05-10T15:59:53;15.50;99.90
4811;DHT22;2419;51.276;6.472;2023-05-10T16:02:23;15.30;99.90
4811;DHT22;2419;51.276;6.472;2023-05-10T16:04:51;15.20;99.90
4811;DHT22;2419;51.276;6.472;2023-05-10T16:07:19;15.20;99.90
4811;DHT22;2419;51.276;6.472;2023-05-10T16:09:47;15.10;99.90
4811;DHT22;2419;51.276;6.472;2023-05-10T16:12:16;15.00;99.90
4811;DHT22;2419;51.276;6.472;2023-05-10T16:14:44;15.00;99.90
4811;DHT22;2419;51.276;6.472;2023-05-10T16:17:12;14.80;99.90
4811;DHT22;2419;51.276;6.472;2023-05-10T16:19:42;14.70;99.90
4811;DHT22;2419;51.276;6.472;2023-05-10T16:22:10;14.60;99.90
4811;DHT22;2419;51.276;6.472;2023-05-10T16:24:40;14.50;99.90